createdAt,value
2022-11-07T00:00:28.093Z,1.32
2022-11-07T00:02:57.151Z,1.34
2022-11-07T00:05:27.355Z,1.28
2022-11-07T00:07:56.070Z,1.26
2022-11-07T00:10:24.446Z,1.31
2022-11-07T00:12:53.118Z,1.31
2022-11-07T00:15:21.613Z,1.32
2022-11-07T00:17:49.903Z,1.35
2022-11-07T00:20:19.409Z,1.33
2022-11-07T00:22:49.715Z,1.31
2022-11-07T00:25:19.325Z,1.28
2022-11-07T00:27:49.246Z,1.39
2022-11-07T00:30:18.198Z,1.41
2022-11-07T00:32:47.148Z,1.47
2022-11-07T00:35:15.736Z,1.46
2022-11-07T00:37:44.256Z,1.41
2022-11-07T00:40:16.158Z,1.50
2022-11-07T00:42:45.266Z,1.53
2022-11-07T00:45:13.794Z,1.50
2022-11-07T00:47:42.066Z,1.49
2022-11-07T00:50:10.777Z,1.52
2022-11-07T00:52:39.029Z,1.52
2022-11-07T00:55:07.785Z,1.49
2022-11-07T00:57:37.714Z,1.50
2022-11-07T01:00:06.537Z,1.44
2022-11-07T01:02:35.007Z,1.43
2022-11-07T01:05:11.164Z,1.43
2022-11-07T01:07:40.036Z,1.47
2022-11-07T01:10:09.144Z,1.48
2022-11-07T01:12:39.802Z,1.49
2022-11-07T01:15:08.972Z,1.49
2022-11-07T01:17:38.230Z,1.55
2022-11-07T01:20:08.845Z,1.58
2022-11-07T01:22:38.884Z,1.55
2022-11-07T01:25:16.004Z,1.51
2022-11-07T01:27:47.074Z,1.57
2022-11-07T01:30:16.394Z,1.61
2022-11-07T01:32:45.288Z,1.56
2022-11-07T01:35:18.649Z,1.54
2022-11-07T01:37:48.552Z,1.54
2022-11-07T01:53:30.311Z,1.55
2022-11-07T01:55:59.155Z,1.52
2022-11-07T02:01:10.037Z,1.56
2022-11-07T02:03:39.827Z,1.56
2022-11-07T02:06:12.090Z,1.58
2022-11-07T02:08:44.804Z,1.56
2022-11-07T02:11:17.643Z,1.61
2022-11-07T02:13:47.074Z,1.64
2022-11-07T02:16:15.870Z,1.65
2022-11-07T02:18:44.761Z,1.70
2022-11-07T02:21:18.370Z,1.72
2022-11-07T02:23:51.881Z,1.75
2022-11-07T02:26:23.797Z,1.75
2022-11-07T02:28:54.379Z,1.73
2022-11-07T02:31:23.154Z,1.79
2022-11-07T02:33:52.039Z,1.81
2022-11-07T02:36:25.698Z,1.83
2022-11-07T02:39:00.141Z,1.90
2022-11-07T02:41:34.888Z,1.95
2022-11-07T02:44:05.834Z,1.97
2022-11-07T02:46:34.961Z,1.99
2022-11-07T02:49:03.517Z,1.95
2022-11-07T02:51:32.015Z,1.93
2022-11-07T02:54:01.278Z,2.01
2022-11-07T02:56:33.122Z,1.92
2022-11-07T02:59:01.973Z,2.05
2022-11-07T03:01:32.308Z,2.00
2022-11-07T03:04:00.923Z,2.04
2022-11-07T03:06:30.738Z,2.09
2022-11-07T03:09:00.116Z,2.09
2022-11-07T03:11:29.157Z,2.16
2022-11-07T03:13:58.878Z,2.16
2022-11-07T03:16:27.761Z,2.19
2022-11-07T03:18:56.342Z,2.16
2022-11-07T03:21:24.417Z,2.10
2022-11-07T03:23:52.990Z,2.04
2022-11-07T03:26:21.905Z,2.06
2022-11-07T03:28:50.674Z,2.03
2022-11-07T03:31:21.548Z,2.04
2022-11-07T03:33:50.279Z,2.08
2022-11-07T03:36:18.713Z,2.07
2022-11-07T03:38:47.196Z,2.09
2022-11-07T03:41:17.601Z,2.14
2022-11-07T03:43:46.120Z,2.19
2022-11-07T03:46:14.689Z,2.23
2022-11-07T03:48:45.210Z,2.17
2022-11-07T03:51:14.637Z,2.08
2022-11-07T03:53:43.330Z,2.16
2022-11-07T03:56:12.561Z,2.18
2022-11-07T03:58:41.070Z,2.19
2022-11-07T04:01:10.647Z,2.29
2022-11-07T04:03:42.043Z,2.23
2022-11-07T04:06:13.528Z,2.28
2022-11-07T04:08:42.396Z,2.30
2022-11-07T04:11:31.342Z,2.33
2022-11-07T04:14:13.379Z,2.38
2022-11-07T04:16:59.284Z,2.41
2022-11-07T04:19:27.819Z,2.40
2022-11-07T04:21:58.031Z,2.35
2022-11-07T04:24:26.718Z,2.36
2022-11-07T04:27:11.559Z,2.32
2022-11-07T04:29:40.588Z,2.28
2022-11-07T04:32:09.013Z,2.20
2022-11-07T04:34:37.692Z,2.23
2022-11-07T04:37:07.386Z,2.16
2022-11-07T04:39:36.292Z,2.14
2022-11-07T04:42:05.340Z,2.13
2022-11-07T04:44:34.687Z,2.15
2022-11-07T04:47:03.754Z,2.11
2022-11-07T04:49:32.373Z,2.14
2022-11-07T05:01:03.601Z,2.13
2022-11-07T05:03:35.195Z,2.14
2022-11-07T05:06:08.525Z,2.19
2022-11-07T05:08:39.979Z,2.17
2022-11-07T05:11:08.498Z,2.14
2022-11-07T05:13:37.429Z,2.14
2022-11-07T05:16:07.828Z,2.19
2022-11-07T05:18:36.787Z,2.21
2022-11-07T05:21:05.466Z,2.24
2022-11-07T05:23:32.696Z,2.29
2022-11-07T05:26:01.849Z,2.29
2022-11-07T05:28:38.731Z,2.28
2022-11-07T05:31:10.504Z,2.33
2022-11-07T05:33:39.591Z,2.44
2022-11-07T05:36:11.654Z,2.43
2022-11-07T05:38:42.299Z,2.34
2022-11-07T05:41:12.006Z,2.38
2022-11-07T05:43:41.224Z,2.39
2022-11-07T05:46:11.576Z,2.37
2022-11-07T05:48:40.349Z,2.40
2022-11-07T05:51:09.556Z,2.37
2022-11-07T05:53:38.527Z,2.44
2022-11-07T05:56:07.069Z,2.47
2022-11-07T05:58:35.981Z,2.42
2022-11-07T06:01:04.711Z,2.51
2022-11-07T06:03:36.154Z,2.59
2022-11-07T06:06:04.906Z,2.60
2022-11-07T06:08:33.793Z,2.57
2022-11-07T06:11:06.331Z,2.54
2022-11-07T06:13:35.065Z,2.54
2022-11-07T06:16:03.665Z,2.61
2022-11-07T06:18:32.009Z,2.61
2022-11-07T06:21:04.471Z,2.62
2022-11-07T06:23:33.235Z,2.52
2022-11-07T06:26:02.409Z,2.37
2022-11-07T06:28:31.059Z,2.41
2022-11-07T06:31:01.203Z,2.35
2022-11-07T06:33:30.673Z,2.45
2022-11-07T06:36:09.495Z,2.47
2022-11-07T06:38:38.532Z,2.61
2022-11-07T06:41:07.786Z,2.70
2022-11-07T06:43:36.608Z,2.71
2022-11-07T06:46:05.845Z,2.70
2022-11-07T06:48:34.212Z,2.74
2022-11-07T06:51:04.281Z,2.76
2022-11-07T06:53:35.152Z,2.79
2022-11-07T06:56:04.242Z,2.81
2022-11-07T06:58:33.735Z,2.91
2022-11-07T07:01:03.109Z,3.04
2022-11-07T07:03:31.855Z,3.08
2022-11-07T07:06:02.584Z,3.02
2022-11-07T07:08:33.539Z,3.12
2022-11-07T07:11:06.587Z,3.01
2022-11-07T07:13:35.982Z,3.03
2022-11-07T07:16:06.060Z,3.00
2022-11-07T07:18:37.523Z,3.09
2022-11-07T07:21:07.269Z,3.15
2022-11-07T07:23:45.081Z,3.16
2022-11-07T07:26:17.245Z,3.28
2022-11-07T07:31:46.135Z,3.18
2022-11-07T07:34:18.259Z,3.22
2022-11-07T07:36:49.082Z,3.34
2022-11-07T07:39:20.038Z,3.33
2022-11-07T07:41:51.194Z,3.19
2022-11-07T07:44:22.432Z,3.19
2022-11-07T07:46:55.267Z,3.35
2022-11-07T07:49:28.933Z,3.42
2022-11-07T07:51:59.706Z,3.51
2022-11-07T07:54:28.644Z,3.45
2022-11-07T07:56:59.031Z,3.44
2022-11-07T07:59:28.311Z,3.42
2022-11-07T08:01:57.867Z,3.48
2022-11-07T08:04:27.248Z,3.45
2022-11-07T08:06:58.787Z,3.59
2022-11-07T08:09:27.633Z,3.67
2022-11-07T08:11:56.972Z,3.80
2022-11-07T08:14:27.369Z,3.95
2022-11-07T08:16:55.705Z,4.01
2022-11-07T08:19:25.237Z,4.02
2022-11-07T08:21:55.666Z,4.26
2022-11-07T08:24:26.817Z,4.38
2022-11-07T08:26:55.583Z,4.40
2022-11-07T08:29:24.289Z,4.45
2022-11-07T08:31:54.840Z,4.47
2022-11-07T08:34:25.145Z,4.45
2022-11-07T08:36:54.165Z,4.43
2022-11-07T08:39:23.096Z,4.41
2022-11-07T08:41:52.039Z,4.53
2022-11-07T08:44:21.562Z,4.46
2022-11-07T08:46:51.329Z,4.48
2022-11-07T08:49:22.680Z,4.42
2022-11-07T08:51:51.989Z,4.26
2022-11-07T08:54:24.092Z,4.32
2022-11-07T08:56:58.003Z,4.34
2022-11-07T08:59:29.424Z,4.10
2022-11-07T09:04:49.246Z,4.24
2022-11-07T09:07:20.752Z,4.22
2022-11-07T09:09:51.613Z,4.28
2022-11-07T09:12:22.145Z,4.12
2022-11-07T09:14:50.868Z,4.25
2022-11-07T09:17:21.636Z,4.27
2022-11-07T09:19:52.578Z,4.37
2022-11-07T09:22:24.315Z,4.45
2022-11-07T09:24:53.283Z,4.41
2022-11-07T09:27:23.534Z,4.38
2022-11-07T09:32:45.852Z,4.18
2022-11-07T09:35:21.270Z,4.15
2022-11-07T09:37:54.722Z,4.09
2022-11-07T09:40:26.931Z,4.12
2022-11-07T09:43:02.891Z,4.17
2022-11-07T09:48:24.568Z,4.09
2022-11-07T09:50:55.147Z,3.99
2022-11-07T09:53:29.219Z,3.90
2022-11-07T09:56:00.084Z,3.92
2022-11-07T09:58:32.320Z,3.78
2022-11-07T10:01:07.096Z,3.62
2022-11-07T10:03:37.110Z,3.67
2022-11-07T10:06:16.768Z,3.71
2022-11-07T10:08:52.739Z,3.80
2022-11-07T10:11:33.335Z,3.76
2022-11-07T10:14:07.370Z,3.79
2022-11-07T10:16:53.649Z,3.82
2022-11-07T10:19:31.349Z,4.01
2022-11-07T10:22:14.230Z,4.04
2022-11-07T10:24:51.350Z,4.13
2022-11-07T10:27:23.063Z,4.12
2022-11-07T10:30:03.075Z,4.20
2022-11-07T10:32:37.157Z,4.20
2022-11-07T10:35:17.049Z,4.30
2022-11-07T10:37:54.795Z,4.31
2022-11-07T10:40:26.682Z,4.37
2022-11-07T10:42:56.188Z,4.37
2022-11-07T10:45:26.280Z,4.46
2022-11-07T10:47:59.487Z,4.41
2022-11-07T10:50:30.252Z,4.30
2022-11-07T10:53:03.406Z,4.27
2022-11-07T10:55:34.531Z,4.26
2022-11-07T11:04:01.832Z,4.14
2022-11-07T11:06:38.711Z,4.06
2022-11-07T11:09:20.070Z,4.06
2022-11-07T11:11:55.250Z,4.11
2022-11-07T11:14:24.192Z,4.05
2022-11-07T11:16:55.819Z,4.12
2022-11-07T11:19:36.784Z,4.20
2022-11-07T11:22:13.819Z,4.21
2022-11-07T11:24:44.807Z,4.18
2022-11-07T11:27:15.758Z,4.22
2022-11-07T11:29:47.467Z,4.33
2022-11-07T11:32:26.104Z,4.35
2022-11-07T11:35:01.907Z,4.38
2022-11-07T11:37:31.084Z,4.40
2022-11-07T11:40:15.131Z,4.35
2022-11-07T11:46:13.132Z,4.22
2022-11-07T11:54:58.344Z,4.13
2022-11-07T11:57:34.647Z,4.17
2022-11-07T12:00:06.487Z,4.16
2022-11-07T12:02:42.866Z,4.20
2022-11-07T12:05:20.712Z,4.21
2022-11-07T12:07:56.199Z,4.16
2022-11-07T12:10:28.935Z,4.18
2022-11-07T12:13:04.684Z,4.23
2022-11-07T12:15:41.782Z,4.20
2022-11-07T12:18:16.234Z,4.25
2022-11-07T12:20:51.131Z,4.25
2022-11-07T12:23:28.060Z,4.22
2022-11-07T12:26:00.445Z,4.21
2022-11-07T12:28:36.805Z,4.17
2022-11-07T12:31:12.507Z,4.11
2022-11-07T12:33:48.457Z,4.11
2022-11-07T12:36:25.358Z,4.04
2022-11-07T12:39:07.449Z,3.91
2022-11-07T12:41:41.252Z,3.80
2022-11-07T12:44:21.222Z,3.72
2022-11-07T12:49:50.286Z,3.73
2022-11-07T12:52:29.671Z,3.71
2022-11-07T12:55:01.215Z,3.71
2022-11-07T12:57:33.735Z,3.67
2022-11-07T13:02:46.528Z,3.60
2022-11-07T13:05:20.333Z,3.69
2022-11-07T13:07:53.274Z,3.63
2022-11-07T13:10:26.004Z,3.63
2022-11-07T13:13:01.737Z,3.63
2022-11-07T13:15:53.721Z,3.63
2022-11-07T13:18:26.651Z,3.66
2022-11-07T13:21:03.710Z,3.61
2022-11-07T13:23:32.542Z,3.64
2022-11-07T13:26:06.953Z,3.64
2022-11-07T13:28:46.487Z,3.54
2022-11-07T13:31:35.803Z,3.54
2022-11-07T13:34:13.281Z,3.58
2022-11-07T13:36:42.102Z,3.56
2022-11-07T13:39:13.530Z,3.58
2022-11-07T13:41:44.696Z,3.53
2022-11-07T13:44:27.399Z,3.50
2022-11-07T13:46:57.061Z,3.49
2022-11-07T13:49:29.268Z,3.45
2022-11-07T13:52:01.090Z,3.45
2022-11-07T13:54:33.884Z,3.46
2022-11-07T13:57:05.330Z,3.49
2022-11-07T13:59:41.291Z,3.47
2022-11-07T14:02:20.321Z,3.43
2022-11-07T14:05:15.310Z,3.43
2022-11-07T14:07:45.978Z,3.46
2022-11-07T14:10:20.595Z,3.41
2022-11-07T14:12:49.992Z,3.46
2022-11-07T14:15:19.337Z,3.53
2022-11-07T14:17:48.162Z,3.41
2022-11-07T14:20:20.699Z,3.48
2022-11-07T14:22:50.302Z,3.36
2022-11-07T14:25:22.609Z,3.45
2022-11-07T14:27:51.217Z,3.40
2022-11-07T14:30:21.401Z,3.44
2022-11-07T14:32:51.573Z,3.42
2022-11-07T14:35:29.563Z,3.40
2022-11-07T14:37:58.812Z,3.42
2022-11-07T14:40:29.561Z,3.27
2022-11-07T14:42:58.196Z,3.30
2022-11-07T14:46:05.570Z,3.28
2022-11-07T14:48:17.941Z,3.28
2022-11-07T14:53:55.127Z,3.29
2022-11-07T14:56:26.875Z,3.29
2022-11-07T14:58:58.204Z,3.33
2022-11-07T15:01:29.267Z,3.39
2022-11-07T15:04:00.236Z,3.40
2022-11-07T15:06:34.128Z,3.43
2022-11-07T15:09:07.164Z,3.49
2022-11-07T15:11:40.401Z,3.46
2022-11-07T15:17:23.133Z,3.42
2022-11-07T15:20:02.707Z,3.48
2022-11-07T15:22:38.809Z,3.47
2022-11-07T15:25:25.893Z,3.46
2022-11-07T15:27:58.119Z,3.42
2022-11-07T15:30:28.927Z,3.35
2022-11-07T15:32:58.772Z,3.40
2022-11-07T15:35:43.415Z,3.47
2022-11-07T15:38:18.605Z,3.43
2022-11-07T15:40:47.542Z,3.51
2022-11-07T15:43:20.207Z,3.46
2022-11-07T15:45:49.845Z,3.40
2022-11-07T15:48:19.592Z,3.33
2022-11-07T15:50:49.305Z,3.46
2022-11-07T15:53:20.559Z,3.46
2022-11-07T15:55:50.320Z,3.42
2022-11-07T15:58:22.893Z,3.44
2022-11-07T16:00:53.087Z,3.50
2022-11-07T16:03:23.210Z,3.53
2022-11-07T16:05:53.517Z,3.51
2022-11-07T16:08:29.974Z,3.53
2022-11-07T16:11:02.419Z,3.62
2022-11-07T16:13:34.085Z,3.53
2022-11-07T16:16:05.959Z,3.60
2022-11-07T16:18:37.355Z,3.57
2022-11-07T16:21:06.099Z,3.55
2022-11-07T16:23:35.266Z,3.57
2022-11-07T16:26:04.192Z,3.57
2022-11-07T16:28:36.592Z,3.53
2022-11-07T16:31:05.666Z,3.50
2022-11-07T16:33:36.963Z,3.49
2022-11-07T16:36:13.814Z,3.48
2022-11-07T16:38:42.744Z,3.53
2022-11-07T16:41:14.042Z,3.58
2022-11-07T16:43:44.612Z,3.58
2022-11-07T16:46:16.824Z,3.54
2022-11-07T16:48:45.904Z,3.51
2022-11-07T16:51:16.987Z,3.45
2022-11-07T16:53:46.282Z,3.49
2022-11-07T16:56:19.999Z,3.51
2022-11-07T16:58:50.075Z,3.51
2022-11-07T17:01:19.211Z,3.55
2022-11-07T17:03:47.826Z,3.54
2022-11-07T17:06:20.852Z,3.54
2022-11-07T17:08:49.555Z,3.60
2022-11-07T17:11:19.010Z,3.62
2022-11-07T17:13:49.253Z,3.63
2022-11-07T17:16:21.129Z,3.69
2022-11-07T17:18:50.156Z,3.65
2022-11-07T17:21:22.856Z,3.62
2022-11-07T17:23:52.061Z,3.60
2022-11-07T17:26:22.211Z,3.54
2022-11-07T17:28:51.530Z,3.56
2022-11-07T17:31:22.481Z,3.58
2022-11-07T17:33:54.386Z,3.58
2022-11-07T17:36:32.067Z,3.61
2022-11-07T17:39:05.812Z,3.57
2022-11-07T17:41:35.345Z,3.51
2022-11-07T17:44:04.583Z,3.39
2022-11-07T17:46:38.350Z,3.47
2022-11-07T17:49:09.360Z,3.53
2022-11-07T17:51:38.143Z,3.46
2022-11-07T17:54:07.249Z,3.47
2022-11-07T17:56:35.548Z,3.15
2022-11-07T17:59:05.621Z,3.47
2022-11-07T18:01:37.941Z,3.46
2022-11-07T18:04:07.003Z,3.41
2022-11-07T18:06:36.833Z,3.41
2022-11-07T18:09:07.413Z,3.38
2022-11-07T18:11:37.012Z,3.47
2022-11-07T18:14:05.074Z,3.46
2022-11-07T18:16:37.457Z,3.48
2022-11-07T18:19:07.127Z,3.44
2022-11-07T18:21:36.779Z,3.48
2022-11-07T18:24:06.002Z,3.46
2022-11-07T18:26:35.502Z,3.42
2022-11-07T18:29:05.619Z,3.31
2022-11-07T18:31:38.965Z,3.40
2022-11-07T18:34:10.065Z,3.40
2022-11-07T18:36:47.346Z,3.38
2022-11-07T18:39:17.762Z,3.42
2022-11-07T18:41:50.133Z,3.30
2022-11-07T18:44:21.653Z,3.36
2022-11-07T18:46:52.060Z,3.35
2022-11-07T18:49:29.488Z,3.39
2022-11-07T18:52:05.590Z,3.43
2022-11-07T18:54:34.246Z,3.46
2022-11-07T18:57:03.244Z,3.41
2022-11-07T18:59:31.984Z,3.45
2022-11-07T19:02:03.223Z,3.45
2022-11-07T19:16:27.317Z,3.34
2022-11-07T19:18:58.760Z,3.38
2022-11-07T19:21:27.616Z,3.38
2022-11-07T19:23:56.211Z,3.45
2022-11-07T19:26:25.395Z,3.49
2022-11-07T19:31:36.992Z,3.44
2022-11-07T19:34:08.376Z,3.50
2022-11-07T19:36:37.327Z,3.50
2022-11-07T19:39:06.344Z,3.49
2022-11-07T19:41:35.161Z,3.45
2022-11-07T19:44:05.015Z,3.53
2022-11-07T19:46:34.162Z,3.54
2022-11-07T19:49:04.493Z,3.58
2022-11-07T19:51:36.468Z,3.57
2022-11-07T19:54:15.778Z,3.51
2022-11-07T19:56:45.334Z,3.59
2022-11-07T19:59:25.125Z,3.61
2022-11-07T20:02:30.982Z,3.56
2022-11-07T20:04:53.983Z,3.62
2022-11-07T20:07:24.508Z,3.61
2022-11-07T20:09:53.396Z,3.64
2022-11-07T20:12:22.371Z,3.56
2022-11-07T20:14:53.595Z,3.57
2022-11-07T20:17:22.329Z,3.60
2022-11-07T20:19:51.216Z,3.59
2022-11-07T20:22:19.623Z,3.62
2022-11-07T20:24:49.348Z,3.60
2022-11-07T20:27:17.947Z,3.60
2022-11-07T20:29:47.176Z,3.53
2022-11-07T20:32:16.156Z,3.56
2022-11-07T20:34:49.930Z,3.61
2022-11-07T20:37:22.834Z,3.64
2022-11-07T20:39:52.764Z,3.62
2022-11-07T20:42:21.745Z,3.63
2022-11-07T20:44:52.184Z,3.70
2022-11-07T20:47:24.086Z,3.73
2022-11-07T20:49:53.035Z,3.77
2022-11-07T20:52:21.291Z,3.70
2022-11-07T20:54:50.255Z,3.71
2022-11-07T20:57:20.525Z,3.73
2022-11-07T20:59:51.022Z,3.71
2022-11-07T21:02:19.773Z,3.71
2022-11-07T21:05:11.225Z,3.72
2022-11-07T21:07:37.077Z,3.75
2022-11-07T21:10:06.060Z,3.79
2022-11-07T21:12:37.414Z,3.82
2022-11-07T21:15:06.765Z,3.83
2022-11-07T21:17:35.603Z,3.88
2022-11-07T21:20:04.382Z,3.87
2022-11-07T21:22:34.006Z,3.80
2022-11-07T21:25:03.591Z,3.82
2022-11-07T21:27:37.042Z,3.87
2022-11-07T21:30:10.302Z,3.76
2022-11-07T21:32:41.076Z,3.82
2022-11-07T21:35:12.455Z,3.88
2022-11-07T21:37:42.265Z,3.91
2022-11-07T21:40:13.678Z,3.86
2022-11-07T21:42:42.908Z,3.86
2022-11-07T21:45:13.773Z,3.81
2022-11-07T21:47:45.811Z,3.86
2022-11-07T21:50:42.763Z,3.93
2022-11-07T21:53:07.227Z,3.92
2022-11-07T21:55:35.681Z,3.88
2022-11-07T21:58:04.717Z,3.85
2022-11-07T22:00:36.974Z,3.90
2022-11-07T22:03:06.048Z,3.91
2022-11-07T22:05:37.032Z,3.93
2022-11-07T22:08:08.294Z,4.00
2022-11-07T22:10:37.867Z,3.98
2022-11-07T22:13:07.628Z,3.99
2022-11-07T22:15:38.206Z,3.98
2022-11-07T22:18:07.005Z,3.98
2022-11-07T22:20:35.902Z,3.97
2022-11-07T22:23:06.588Z,3.91
2022-11-07T22:25:36.262Z,3.98
2022-11-07T22:28:06.724Z,3.96
2022-11-07T22:30:37.412Z,4.03
2022-11-07T22:33:07.496Z,4.02
2022-11-07T22:35:35.845Z,3.99
2022-11-07T22:38:04.850Z,4.02
2022-11-07T22:40:35.756Z,3.94
2022-11-07T22:43:04.341Z,3.93
2022-11-07T22:45:33.221Z,3.93
2022-11-07T22:48:03.822Z,3.93
2022-11-07T22:50:35.683Z,3.93
2022-11-07T22:53:05.043Z,3.96
2022-11-07T22:55:37.919Z,3.89
2022-11-07T22:58:09.913Z,3.86
2022-11-07T23:00:44.218Z,3.93
2022-11-07T23:03:13.277Z,3.90
2022-11-07T23:05:43.645Z,3.91
2022-11-07T23:11:44.899Z,3.92
2022-11-07T23:14:03.665Z,3.83
2022-11-07T23:16:34.716Z,3.74
2022-11-07T23:19:04.765Z,3.79
2022-11-07T23:21:37.304Z,3.84
2022-11-07T23:24:06.578Z,3.93
2022-11-07T23:26:38.618Z,3.96
2022-11-07T23:29:11.648Z,3.94
2022-11-07T23:31:41.371Z,3.91
2022-11-07T23:34:11.145Z,3.93
2022-11-07T23:36:45.043Z,3.88
2022-11-07T23:39:15.680Z,3.95
2022-11-07T23:41:45.404Z,3.95
2022-11-07T23:44:14.560Z,3.94
2022-11-07T23:47:00.537Z,3.87
2022-11-07T23:49:51.493Z,3.89
2022-11-07T23:52:22.356Z,3.77
2022-11-07T23:55:09.256Z,3.80
2022-11-07T23:57:57.985Z,3.77
